createdAt,value
2023-05-10T00:02:25.747Z,6.62
2023-05-10T00:06:21.640Z,6.57
2023-05-10T00:10:05.903Z,6.52
2023-05-10T00:13:49.936Z,6.47
2023-05-10T00:17:15.253Z,6.42
2023-05-10T00:21:11.561Z,6.36
2023-05-10T00:24:56.800Z,6.31
2023-05-10T00:28:21.944Z,6.25
2023-05-10T00:32:00.809Z,6.18
2023-05-10T00:35:58.066Z,6.12
2023-05-10T00:39:41.977Z,6.06
2023-05-10T00:43:26.336Z,6.00
2023-05-10T00:47:14.801Z,5.94
2023-05-10T00:50:41.166Z,5.87
2023-05-10T00:54:37.093Z,5.82
2023-05-10T00:58:23.506Z,5.78
2023-05-10T01:01:48.447Z,5.71
2023-05-10T01:05:26.006Z,5.64
2023-05-10T01:09:23.115Z,5.62
2023-05-10T01:13:08.591Z,5.60
2023-05-10T01:16:54.619Z,5.58
2023-05-10T01:20:48.108Z,5.56
2023-05-10T01:24:36.072Z,5.55
2023-05-10T01:28:43.810Z,5.53
2023-05-10T01:32:53.414Z,5.48
2023-05-10T01:36:55.634Z,5.45
2023-05-10T01:41:13.389Z,5.41
2023-05-10T01:45:07.106Z,5.34
2023-05-10T01:48:59.603Z,5.31
2023-05-10T01:52:41.963Z,5.27
2023-05-10T01:56:10.097Z,5.22
2023-05-10T01:59:48.642Z,5.17
2023-05-10T02:03:51.628Z,5.14
2023-05-10T02:07:18.059Z,5.11
2023-05-10T02:11:14.183Z,5.08
2023-05-10T02:14:42.490Z,5.03
2023-05-10T02:18:18.972Z,4.99
2023-05-10T02:22:16.970Z,4.97
2023-05-10T02:25:43.610Z,4.93
2023-05-10T02:29:39.765Z,4.91
2023-05-10T02:33:26.574Z,4.87
2023-05-10T02:37:10.628Z,4.85
2023-05-10T02:40:38.139Z,4.83
2023-05-10T02:44:34.182Z,4.80
2023-05-10T02:47:59.870Z,4.76
2023-05-10T02:52:00.345Z,4.73
2023-05-10T02:55:47.889Z,4.73
2023-05-10T02:59:33.004Z,4.74
2023-05-10T03:02:59.229Z,4.73
2023-05-10T03:16:13.638Z,4.62
2023-05-10T03:19:57.269Z,4.60
2023-05-10T03:23:41.375Z,4.57
2023-05-10T03:27:30.640Z,4.57
2023-05-10T03:30:56.214Z,4.56
2023-05-10T03:34:32.647Z,4.57
2023-05-10T03:38:10.367Z,4.61
2023-05-10T03:41:51.983Z,4.66
2023-05-10T03:45:29.165Z,4.69
2023-05-10T03:49:04.843Z,4.70
2023-05-10T03:53:02.412Z,4.71
2023-05-10T03:56:29.150Z,4.73
2023-05-10T04:00:25.717Z,4.77
2023-05-10T04:03:51.811Z,4.83
2023-05-10T04:07:50.036Z,4.92
2023-05-10T04:11:17.517Z,5.00
2023-05-10T04:15:11.293Z,5.10
2023-05-10T04:18:40.020Z,5.18
2023-05-10T04:22:13.766Z,5.26
2023-05-10T04:25:51.202Z,5.31
2023-05-10T04:29:29.147Z,5.37
2023-05-10T04:33:25.585Z,5.45
2023-05-10T04:36:50.634Z,5.53
2023-05-10T04:40:28.085Z,5.61
2023-05-10T04:44:24.981Z,5.72
2023-05-10T04:48:12.229Z,5.84
2023-05-10T04:51:57.509Z,5.96
2023-05-10T04:55:42.556Z,6.08
2023-05-10T04:59:07.029Z,6.20
2023-05-10T05:03:05.538Z,6.35
2023-05-10T05:06:34.370Z,6.47
2023-05-10T05:10:28.659Z,6.58
2023-05-10T05:14:12.465Z,6.74
2023-05-10T05:17:56.382Z,6.92
2023-05-10T05:21:40.654Z,7.09
2023-05-10T05:25:24.042Z,7.37
2023-05-10T05:29:07.821Z,7.54
2023-05-10T05:32:35.352Z,7.68
2023-05-10T05:36:12.309Z,7.80
2023-05-10T05:40:10.855Z,7.89
2023-05-10T05:43:40.512Z,7.98
2023-05-10T05:47:36.560Z,8.09
2023-05-10T05:51:01.129Z,8.22
2023-05-10T05:54:57.625Z,8.33
2023-05-10T05:58:26.120Z,8.45
2023-05-10T06:02:18.587Z,8.62
2023-05-10T06:06:02.270Z,8.82
2023-05-10T06:09:29.372Z,8.97
2023-05-10T06:13:24.243Z,9.08
2023-05-10T06:16:49.405Z,9.19
2023-05-10T06:20:27.571Z,9.30
2023-05-10T06:24:26.758Z,9.51
2023-05-10T06:27:58.969Z,9.74
2023-05-10T06:31:53.459Z,9.95
2023-05-10T06:35:18.292Z,10.08
2023-05-10T06:38:55.940Z,10.20
2023-05-10T06:42:33.324Z,10.33
2023-05-10T06:46:11.197Z,10.47
2023-05-10T06:49:49.048Z,10.56
2023-05-10T06:53:26.403Z,10.70
2023-05-10T06:57:31.254Z,10.92
2023-05-10T07:01:15.380Z,11.13
2023-05-10T07:05:01.696Z,11.27
2023-05-10T07:08:28.481Z,11.43
2023-05-10T07:12:07.910Z,11.61
2023-05-10T07:15:45.595Z,11.73
2023-05-10T07:19:24.721Z,11.96
2023-05-10T07:23:18.145Z,12.22
2023-05-10T07:26:45.093Z,12.40
2023-05-10T07:30:22.784Z,12.55
2023-05-10T07:34:00.486Z,12.67
2023-05-10T07:37:38.002Z,12.84
2023-05-10T07:41:35.885Z,13.01
2023-05-10T07:45:19.849Z,13.20
2023-05-10T07:49:03.464Z,13.35
2023-05-10T07:52:48.425Z,13.49
2023-05-10T07:56:33.265Z,13.63
2023-05-10T08:00:20.155Z,13.77
2023-05-10T08:03:44.882Z,13.89
2023-05-10T08:07:22.556Z,13.97
2023-05-10T08:11:20.870Z,14.02
2023-05-10T08:14:45.466Z,14.14
2023-05-10T08:18:23.762Z,14.25
2023-05-10T08:22:00.835Z,14.35
2023-05-10T08:25:57.572Z,14.44
2023-05-10T08:29:22.086Z,14.53
2023-05-10T08:32:59.583Z,14.65
2023-05-10T08:36:56.243Z,14.81
2023-05-10T08:40:43.926Z,14.96
2023-05-10T08:44:33.547Z,15.04
2023-05-10T08:48:24.189Z,15.05
2023-05-10T08:52:08.950Z,15.11
2023-05-10T08:55:53.677Z,15.20
2023-05-10T08:59:18.179Z,15.33
2023-05-10T09:03:16.973Z,15.53
2023-05-10T09:06:42.723Z,15.64
2023-05-10T09:10:40.692Z,15.62
2023-05-10T09:14:25.420Z,15.75
2023-05-10T09:17:52.062Z,15.84
2023-05-10T09:21:49.296Z,15.97
2023-05-10T09:25:19.738Z,16.02
2023-05-10T09:28:56.948Z,16.10
2023-05-10T09:32:51.993Z,16.24
2023-05-10T09:36:36.028Z,16.29
2023-05-10T09:40:07.311Z,16.39
2023-05-10T09:43:43.298Z,16.41
2023-05-10T09:47:37.790Z,16.48
2023-05-10T09:51:05.980Z,16.60
2023-05-10T09:54:52.988Z,16.69
2023-05-10T09:58:39.248Z,16.73
2023-05-10T10:02:04.465Z,16.81
2023-05-10T10:05:44.565Z,16.94
2023-05-10T10:09:19.882Z,17.10
2023-05-10T10:13:17.532Z,17.20
2023-05-10T10:16:55.530Z,17.31
2023-05-10T10:20:29.390Z,17.40
2023-05-10T10:24:07.284Z,17.59
2023-05-10T10:28:22.012Z,17.77
2023-05-10T10:32:38.267Z,17.89
2023-05-10T10:36:21.980Z,18.09
2023-05-10T10:40:34.869Z,18.04
2023-05-10T10:44:33.612Z,18.25
2023-05-10T10:48:22.596Z,18.36
2023-05-10T10:52:19.336Z,18.36
2023-05-10T10:56:15.369Z,18.37
2023-05-10T10:59:46.384Z,18.35
2023-05-10T11:03:23.730Z,18.45
2023-05-10T11:07:21.922Z,18.57
2023-05-10T11:10:53.555Z,18.56
2023-05-10T11:14:26.798Z,18.50
2023-05-10T11:18:22.105Z,17.95
2023-05-10T11:22:07.322Z,18.03
2023-05-10T11:25:51.531Z,18.45
2023-05-10T11:29:16.985Z,18.89
2023-05-10T11:32:54.101Z,19.16
2023-05-10T11:36:36.822Z,19.18
2023-05-10T11:40:28.042Z,19.53
2023-05-10T11:43:58.583Z,19.68
2023-05-10T11:47:30.155Z,19.24
2023-05-10T11:51:26.868Z,18.72
2023-05-10T11:55:10.784Z,18.33
2023-05-10T11:58:37.049Z,18.20
2023-05-10T12:02:34.698Z,18.33
2023-05-10T12:06:20.633Z,18.92
2023-05-10T12:09:48.531Z,19.29
2023-05-10T12:13:46.667Z,19.44
2023-05-10T12:17:14.374Z,19.74
2023-05-10T12:21:11.402Z,19.81
2023-05-10T12:24:55.014Z,19.94
2023-05-10T12:28:42.226Z,19.71
2023-05-10T12:32:39.918Z,19.84
2023-05-10T12:36:04.740Z,20.18
2023-05-10T12:39:44.229Z,20.49
2023-05-10T12:43:39.807Z,20.47
2023-05-10T12:47:04.840Z,20.53
2023-05-10T12:50:42.310Z,20.65
2023-05-10T12:54:38.869Z,20.86
2023-05-10T12:58:34.983Z,21.08
2023-05-10T13:02:00.724Z,21.06
2023-05-10T13:05:57.660Z,21.03
2023-05-10T13:09:43.754Z,21.06
2023-05-10T13:13:27.705Z,21.10
2023-05-10T13:16:52.685Z,21.21
2023-05-10T13:20:30.278Z,21.26
2023-05-10T13:24:31.926Z,21.34
2023-05-10T13:28:15.686Z,21.00
2023-05-10T13:32:00.865Z,20.82
2023-05-10T13:35:32.819Z,20.85
2023-05-10T13:39:06.732Z,20.94
2023-05-10T13:43:00.807Z,21.14
2023-05-10T13:46:31.768Z,21.38
2023-05-10T13:50:26.405Z,21.85
2023-05-10T13:53:52.763Z,21.92
2023-05-10T13:57:47.895Z,21.88
2023-05-10T14:01:15.545Z,21.62
2023-05-10T14:04:51.233Z,21.52
2023-05-10T14:08:48.606Z,21.77
2023-05-10T14:12:16.952Z,21.76
2023-05-10T14:16:12.321Z,21.75
2023-05-10T14:19:56.077Z,21.86
2023-05-10T14:23:27.012Z,21.84
2023-05-10T14:27:18.356Z,21.93
2023-05-10T14:30:46.486Z,21.77
2023-05-10T14:34:41.188Z,21.73
2023-05-10T14:38:10.968Z,21.72
2023-05-10T14:42:03.100Z,21.74
2023-05-10T14:45:48.394Z,21.88
2023-05-10T14:49:31.980Z,21.85
2023-05-10T14:53:16.321Z,21.93
2023-05-10T14:56:43.180Z,22.12
2023-05-10T15:00:38.388Z,22.22
2023-05-10T15:04:05.432Z,21.99
2023-05-10T15:08:00.530Z,21.83
2023-05-10T15:11:44.906Z,21.69
2023-05-10T15:15:11.417Z,21.47
2023-05-10T15:18:49.507Z,21.37
2023-05-10T15:22:26.728Z,21.36
2023-05-10T15:26:04.033Z,21.33
2023-05-10T15:29:41.641Z,21.33
2023-05-10T15:33:19.237Z,21.38
2023-05-10T15:37:16.628Z,21.43
2023-05-10T15:41:00.714Z,21.38
2023-05-10T15:44:28.320Z,21.25
2023-05-10T15:48:23.200Z,21.14
2023-05-10T15:52:06.727Z,21.09
2023-05-10T15:55:51.078Z,20.95
2023-05-10T15:59:16.061Z,20.93
2023-05-10T16:02:54.599Z,20.81
2023-05-10T16:06:33.299Z,20.45
2023-05-10T16:10:10.764Z,20.35
2023-05-10T16:13:48.653Z,20.27
2023-05-10T16:17:43.954Z,20.29
2023-05-10T16:21:09.082Z,20.30
2023-05-10T16:25:05.993Z,20.05
2023-05-10T16:28:52.350Z,19.98
2023-05-10T16:32:37.106Z,19.87
2023-05-10T16:36:20.756Z,19.82
2023-05-10T16:40:09.651Z,19.69
2023-05-10T16:43:54.911Z,19.59
2023-05-10T16:47:22.215Z,19.58
2023-05-10T16:51:16.628Z,19.42
2023-05-10T16:54:44.891Z,19.23
2023-05-10T16:58:19.514Z,19.06
2023-05-10T17:02:16.402Z,18.94
2023-05-10T17:06:00.670Z,18.88
2023-05-10T17:09:44.832Z,18.71
2023-05-10T17:13:10.402Z,18.56
2023-05-10T17:16:52.859Z,18.50
2023-05-10T17:20:26.647Z,18.31
2023-05-10T17:24:21.765Z,18.18
2023-05-10T17:28:09.232Z,18.07
2023-05-10T17:31:55.725Z,17.87
2023-05-10T17:35:23.470Z,17.61
2023-05-10T17:39:01.272Z,17.41
2023-05-10T17:42:57.892Z,17.23
2023-05-10T17:46:22.509Z,16.94
2023-05-10T17:50:02.584Z,16.63
2023-05-10T17:53:56.439Z,16.35
2023-05-10T17:57:28.819Z,16.11
2023-05-10T18:01:04.849Z,15.87
2023-05-10T18:05:01.126Z,15.70
2023-05-10T18:08:44.865Z,15.53
2023-05-10T18:12:10.774Z,15.35
2023-05-10T18:15:49.251Z,15.18
2023-05-10T18:19:44.904Z,15.04
2023-05-10T18:23:09.378Z,14.84
2023-05-10T18:26:47.457Z,14.69
2023-05-10T18:30:24.933Z,14.50
2023-05-10T18:34:02.445Z,14.30
2023-05-10T18:37:40.302Z,14.14
2023-05-10T18:41:18.829Z,13.95
2023-05-10T18:45:14.363Z,13.80
2023-05-10T18:48:58.648Z,13.66
2023-05-10T18:52:23.898Z,13.53
2023-05-10T18:56:01.614Z,13.40
2023-05-10T18:59:38.856Z,13.25
2023-05-10T19:03:35.753Z,13.15
2023-05-10T19:07:02.066Z,13.04
2023-05-10T19:10:37.975Z,12.93
2023-05-10T19:14:19.046Z,12.84
2023-05-10T19:17:53.547Z,12.75
2023-05-10T19:21:50.793Z,12.67
2023-05-10T19:25:17.731Z,12.58
2023-05-10T19:29:14.188Z,12.52
2023-05-10T19:32:57.648Z,12.46
2023-05-10T19:36:25.662Z,12.38
2023-05-10T19:53:16.583Z,12.47
2023-05-10T19:57:14.062Z,12.36
2023-05-10T20:00:39.153Z,12.21
2023-05-10T20:04:35.467Z,12.14
2023-05-10T20:08:19.226Z,12.08
2023-05-10T20:11:46.314Z,11.99
2023-05-10T20:15:24.018Z,11.89
2023-05-10T20:19:01.644Z,11.80
2023-05-10T20:22:58.014Z,11.70
2023-05-10T20:26:41.479Z,11.62
2023-05-10T20:30:25.076Z,11.53
2023-05-10T20:34:08.038Z,11.45
2023-05-10T20:37:51.929Z,11.37
2023-05-10T20:41:34.898Z,11.30
2023-05-10T20:44:59.715Z,11.21
2023-05-10T20:48:55.658Z,11.13
2023-05-10T20:52:40.216Z,11.05
2023-05-10T20:56:26.078Z,10.98
2023-05-10T20:59:52.906Z,10.93
2023-05-10T21:03:30.479Z,10.85
2023-05-10T21:07:26.943Z,10.79
2023-05-10T21:10:52.319Z,10.75
2023-05-10T21:14:30.408Z,10.69
2023-05-10T21:18:25.338Z,10.63
2023-05-10T21:21:49.616Z,10.58
2023-05-10T21:25:27.429Z,10.52
2023-05-10T21:29:23.939Z,10.46
2023-05-10T21:32:51.278Z,10.41
2023-05-10T21:36:26.273Z,10.34
2023-05-10T21:40:23.333Z,10.30
2023-05-10T21:44:06.580Z,10.26
2023-05-10T21:47:30.766Z,10.20
2023-05-10T21:51:08.286Z,10.13
2023-05-10T21:55:07.774Z,10.09
2023-05-10T21:58:34.819Z,10.01
2023-05-10T22:02:31.370Z,9.95
2023-05-10T22:05:58.221Z,9.89
2023-05-10T22:09:54.711Z,9.85
2023-05-10T22:13:21.124Z,9.77
2023-05-10T22:17:17.303Z,9.71
2023-05-10T22:20:54.624Z,9.65
2023-05-10T22:24:40.321Z,9.62
2023-05-10T22:28:04.635Z,9.57
2023-05-10T22:31:42.284Z,9.51
2023-05-10T22:35:38.811Z,9.48
2023-05-10T22:39:22.899Z,9.43
2023-05-10T22:43:06.624Z,9.37
2023-05-10T22:46:36.569Z,9.32
2023-05-10T22:50:29.337Z,9.29
2023-05-10T22:53:53.999Z,9.25
2023-05-10T22:57:31.754Z,9.19
2023-05-10T23:01:09.395Z,9.15
2023-05-10T23:04:47.064Z,9.10
2023-05-10T23:08:25.033Z,9.05
2023-05-10T23:12:03.133Z,8.99
2023-05-10T23:15:40.438Z,8.89
2023-05-10T23:19:36.637Z,8.81
2023-05-10T23:23:22.069Z,8.77
2023-05-10T23:26:50.361Z,8.76
2023-05-10T23:30:42.944Z,8.73
2023-05-10T23:34:12.276Z,8.68
2023-05-10T23:38:05.499Z,8.63
2023-05-10T23:41:51.192Z,8.57
2023-05-10T23:45:15.742Z,8.51
2023-05-10T23:49:11.845Z,8.45
2023-05-10T23:52:55.868Z,8.39
2023-05-10T23:56:22.187Z,8.33
2023-05-10T23:59:59.514Z,8.29
